createdAt,value
2018-08-18T00:00:06.674Z,67.88
2018-08-18T00:01:16.544Z,67.78
2018-08-18T00:02:26.779Z,67.78
2018-08-18T00:03:37.016Z,68.26
2018-08-18T00:04:46.945Z,68.26
2018-08-18T00:05:57.104Z,68.45
2018-08-18T00:07:07.249Z,68.35
2018-08-18T00:08:17.448Z,68.45
2018-08-18T00:09:27.685Z,68.55
2018-08-18T00:10:37.864Z,68.55
2018-08-18T00:11:48.111Z,68.35
2018-08-18T00:12:58.286Z,68.35
2018-08-18T00:14:08.506Z,68.42
2018-08-18T00:15:18.693Z,68.93
2018-08-18T00:16:28.851Z,68.61
2018-08-18T00:17:38.645Z,68.93
2018-08-18T00:18:48.885Z,69.13
2018-08-18T00:19:59.276Z,68.52
2018-08-18T00:21:09.411Z,68.45
2018-08-18T00:22:19.546Z,68.65
2018-08-18T00:23:29.671Z,68.55
2018-08-18T00:24:39.820Z,68.61
2018-08-18T00:25:49.961Z,68.61
2018-08-18T00:27:00.087Z,68.65
2018-08-18T00:28:09.992Z,68.55
2018-08-18T00:29:20.122Z,68.61
2018-08-18T00:30:30.281Z,68.52
2018-08-18T00:31:40.626Z,68.42
2018-08-18T00:32:50.770Z,68.61
2018-08-18T00:34:01.119Z,68.52
2018-08-18T00:35:11.305Z,69.09
2018-08-18T00:36:21.305Z,68.61
2018-08-18T00:37:31.458Z,68.71
2018-08-18T00:38:41.612Z,68.9
2018-08-18T00:39:51.828Z,69.09
2018-08-18T00:41:01.752Z,68.99
2018-08-18T00:42:11.622Z,69.29
2018-08-18T00:43:21.779Z,69.19
2018-08-18T00:44:31.898Z,68.99
2018-08-18T00:45:42.030Z,69.38
2018-08-18T00:46:52.286Z,69.38
2018-08-18T00:48:01.988Z,69.57
2018-08-18T00:49:12.169Z,69.67
2018-08-18T00:50:22.377Z,69.67
2018-08-18T00:51:32.626Z,69.87
2018-08-18T00:52:42.787Z,69.57
2018-08-18T00:53:52.746Z,69.57
2018-08-18T00:55:02.947Z,70.06
2018-08-18T00:56:12.764Z,69.96
2018-08-18T00:57:22.937Z,69.87
2018-08-18T00:58:32.805Z,69.96
2018-08-18T00:59:42.962Z,69.67
2018-08-18T01:00:53.102Z,69.57
2018-08-18T01:02:03.261Z,70.06
2018-08-18T01:03:13.470Z,70.15
2018-08-18T01:04:23.621Z,70.92
2018-08-18T01:05:33.386Z,70.73
2018-08-18T01:06:43.281Z,71.12
2018-08-18T01:07:53.520Z,71.31
2018-08-18T01:09:03.660Z,71.79
2018-08-18T01:10:13.775Z,73.14
2018-08-18T01:11:23.975Z,72.47
2018-08-18T01:12:35.047Z,72.56
2018-08-18T01:13:46.311Z,73.14
2018-08-18T01:14:57.523Z,72.85
2018-08-18T01:16:07.732Z,72.95
2018-08-18T01:17:17.863Z,73.33
2018-08-18T01:18:28.081Z,73.72
2018-08-18T01:19:38.261Z,73.91
2018-08-18T01:20:48.236Z,74.36
2018-08-18T01:21:57.883Z,74.55
2018-08-18T01:23:07.823Z,74.58
2018-08-18T01:24:17.987Z,74.97
2018-08-18T01:25:28.212Z,75.9
2018-08-18T01:26:38.382Z,76.18
2018-08-18T01:27:48.649Z,75.8
2018-08-18T01:28:58.842Z,76.18
2018-08-18T01:30:09.009Z,76.76
2018-08-18T01:31:19.224Z,76.76
2018-08-18T01:32:29.111Z,77.25
2018-08-18T01:33:39.265Z,78.21
2018-08-18T01:34:49.441Z,79.36
2018-08-18T01:35:59.582Z,79.33
2018-08-18T01:37:09.746Z,79.61
2018-08-18T01:38:19.855Z,79.81
2018-08-18T01:39:30.022Z,79.61
2018-08-18T01:40:40.195Z,79.81
2018-08-18T01:41:50.322Z,79.9
2018-08-18T01:43:00.509Z,79.9
2018-08-18T01:44:10.767Z,79.33
2018-08-18T01:45:21.913Z,80.48
2018-08-18T01:46:32.239Z,80.87
2018-08-18T01:47:42.415Z,80.58
2018-08-18T01:48:52.351Z,79.9
2018-08-18T01:50:02.487Z,80
2018-08-18T01:51:12.616Z,79.81
2018-08-18T01:52:22.755Z,80.1
2018-08-18T01:53:32.715Z,80.68
2018-08-18T01:54:42.827Z,80.96
2018-08-18T01:55:52.608Z,80.68
2018-08-18T01:57:02.560Z,81.35
2018-08-18T01:58:12.697Z,81.63
2018-08-18T01:59:23.846Z,81.93
2018-08-18T02:00:34.188Z,80.96
2018-08-18T02:01:44.308Z,80.48
2018-08-18T02:02:54.207Z,81.83
2018-08-18T02:04:04.337Z,81.06
2018-08-18T02:05:14.473Z,82.12
2018-08-18T02:06:24.613Z,82.21
2018-08-18T02:07:34.748Z,81.63
2018-08-18T02:08:44.911Z,81.06
2018-08-18T02:09:54.730Z,80.87
2018-08-18T02:11:04.618Z,80.38
2018-08-18T02:12:14.744Z,80.29
2018-08-18T02:13:24.905Z,81.35
2018-08-18T02:14:35.041Z,81.45
2018-08-18T02:15:45.878Z,80.96
2018-08-18T02:16:56.049Z,80.68
2018-08-18T02:18:06.293Z,79.81
2018-08-18T02:19:16.474Z,80.19
2018-08-18T02:20:26.634Z,79.81
2018-08-18T02:21:36.827Z,79.81
2018-08-18T02:22:47.056Z,79.71
2018-08-18T02:23:56.914Z,80.38
2018-08-18T02:25:06.803Z,79.9
2018-08-18T02:26:16.954Z,79.03
2018-08-18T02:27:27.074Z,79.52
2018-08-18T02:28:37.235Z,79.43
2018-08-18T02:29:47.472Z,79.52
2018-08-18T02:30:57.615Z,79.23
2018-08-18T02:32:08.021Z,79.13
2018-08-18T02:33:18.861Z,80
2018-08-18T02:34:29.034Z,78.75
2018-08-18T02:35:38.909Z,78.75
2018-08-18T02:36:49.050Z,79.52
2018-08-18T02:37:58.915Z,79.33
2018-08-18T02:39:09.314Z,79.23
2018-08-18T02:40:19.456Z,79.23
2018-08-18T02:41:29.349Z,79.61
2018-08-18T02:42:39.538Z,80
2018-08-18T02:43:49.401Z,79.52
2018-08-18T02:44:59.552Z,79.71
2018-08-18T02:46:09.696Z,79.23
2018-08-18T02:47:19.833Z,79.71
2018-08-18T02:48:30.151Z,79.03
2018-08-18T02:49:40.293Z,79.13
2018-08-18T02:50:50.467Z,79.13
2018-08-18T02:52:00.721Z,79.71
2018-08-18T02:53:10.866Z,79.33
2018-08-18T02:54:20.816Z,79.33
2018-08-18T02:55:30.681Z,79.23
2018-08-18T02:56:40.802Z,79.33
2018-08-18T02:57:50.964Z,79.33
2018-08-18T02:59:01.093Z,79.52
2018-08-18T03:00:11.284Z,78.94
2018-08-18T03:01:21.446Z,78.56
2018-08-18T03:02:31.790Z,79.03
2018-08-18T03:03:41.943Z,78.27
2018-08-18T03:04:52.112Z,78.65
2018-08-18T03:06:02.319Z,78.65
2018-08-18T03:07:12.460Z,78.65
2018-08-18T03:08:22.579Z,78.94
2018-08-18T03:09:32.729Z,79.48
2018-08-18T03:10:42.860Z,78.81
2018-08-18T03:11:52.976Z,79.38
2018-08-18T03:13:03.238Z,79
2018-08-18T03:14:13.458Z,79
2018-08-18T03:15:23.600Z,79.03
2018-08-18T03:16:33.520Z,78.75
2018-08-18T03:17:43.657Z,78.81
2018-08-18T03:18:53.535Z,78.61
2018-08-18T03:20:03.295Z,78.03
2018-08-18T03:21:13.446Z,78.81
2018-08-18T03:22:23.567Z,78.42
2018-08-18T03:23:33.714Z,78.42
2018-08-18T03:24:43.834Z,78.71
2018-08-18T03:25:53.963Z,79
2018-08-18T03:27:03.869Z,78.42
2018-08-18T03:28:14.032Z,78.42
2018-08-18T03:29:24.174Z,77.84
2018-08-18T03:30:34.313Z,78.03
2018-08-18T03:31:44.506Z,78.23
2018-08-18T03:32:54.645Z,77.84
2018-08-18T03:34:04.522Z,78.23
2018-08-18T03:35:14.433Z,78.42
2018-08-18T03:36:24.682Z,78.52
2018-08-18T03:37:34.949Z,78.61
2018-08-18T03:38:45.178Z,78.81
2018-08-18T03:39:55.404Z,78.42
2018-08-18T03:41:05.575Z,78.03
2018-08-18T03:42:15.862Z,78.03
2018-08-18T03:43:25.997Z,78.03
2018-08-18T03:44:35.901Z,78.03
2018-08-18T03:45:46.110Z,78.03
2018-08-18T03:46:55.981Z,78.03
2018-08-18T03:48:06.107Z,77.75
2018-08-18T03:49:15.964Z,77.94
2018-08-18T03:50:25.587Z,77.75
2018-08-18T03:51:35.704Z,77.75
2018-08-18T03:52:45.570Z,77.36
2018-08-18T03:53:55.398Z,77.56
2018-08-18T03:55:05.304Z,77.36
2018-08-18T03:56:15.425Z,77.56
2018-08-18T03:57:25.695Z,77.46
2018-08-18T03:58:35.831Z,77.65
2018-08-18T03:59:45.966Z,77.75
2018-08-18T04:00:56.102Z,77.56
2018-08-18T04:02:06.660Z,77.56
2018-08-18T04:03:17.125Z,77.17
2018-08-18T04:04:27.280Z,77.26
2018-08-18T04:05:37.419Z,77.17
2018-08-18T04:06:47.702Z,77.56
2018-08-18T04:07:57.473Z,77.56
2018-08-18T04:09:07.654Z,77.94
2018-08-18T04:10:18.134Z,77.94
2018-08-18T04:11:28.153Z,77.75
2018-08-18T04:12:38.349Z,77.65
2018-08-18T04:13:48.514Z,77.08
2018-08-18T04:14:58.657Z,77.36
2018-08-18T04:16:08.825Z,77.26
2018-08-18T04:17:18.781Z,77.36
2018-08-18T04:18:28.937Z,77.36
2018-08-18T04:19:39.082Z,77.17
2018-08-18T04:20:49.293Z,77.36
2018-08-18T04:21:59.550Z,77.36
2018-08-18T04:23:09.777Z,77.26
2018-08-18T04:24:19.529Z,77.56
2018-08-18T04:25:29.449Z,77.26
2018-08-18T04:26:39.374Z,77.17
2018-08-18T04:27:49.632Z,77.17
2018-08-18T04:28:59.144Z,77.65
2018-08-18T04:30:09.292Z,77.84
2018-08-18T04:31:19.432Z,77.46
2018-08-18T04:32:29.564Z,77.56
2018-08-18T04:33:39.430Z,77.84
2018-08-18T04:34:49.721Z,77.36
2018-08-18T04:35:59.854Z,77.26
2018-08-18T04:37:09.993Z,76.4
2018-08-18T04:38:20.263Z,76.5
2018-08-18T04:39:30.131Z,76.69
2018-08-18T04:40:40.393Z,76.88
2018-08-18T04:41:50.549Z,76.69
2018-08-18T04:43:00.670Z,76.31
2018-08-18T04:44:10.828Z,76.5
2018-08-18T04:45:21.033Z,76.4
2018-08-18T04:46:30.934Z,76.11
2018-08-18T04:47:41.168Z,76.11
2018-08-18T04:48:51.292Z,76.11
2018-08-18T04:50:02.137Z,76.31
2018-08-18T04:51:12.300Z,76.11
2018-08-18T04:52:22.414Z,75.92
2018-08-18T04:53:32.562Z,75.82
2018-08-18T04:54:42.824Z,75.24
2018-08-18T04:55:52.973Z,75.15
2018-08-18T04:57:03.388Z,75.28
2018-08-18T04:58:12.992Z,75.19
2018-08-18T04:59:23.279Z,75.28
2018-08-18T05:00:33.196Z,75.19
2018-08-18T05:01:43.134Z,75.34
2018-08-18T05:02:53.170Z,75.19
2018-08-18T05:04:03.292Z,75.86
2018-08-18T05:05:13.647Z,75.48
2018-08-18T05:06:24.100Z,75.28
2018-08-18T05:07:34.324Z,75.44
2018-08-18T05:08:44.490Z,75.48
2018-08-18T05:09:54.920Z,75.73
2018-08-18T05:11:04.731Z,76.06
2018-08-18T05:12:14.898Z,75.67
2018-08-18T05:13:25.048Z,75.86
2018-08-18T05:14:34.689Z,75.28
2018-08-18T05:15:44.855Z,75.19
2018-08-18T05:16:54.886Z,75.28
2018-08-18T05:18:05.015Z,74.9
2018-08-18T05:19:15.611Z,75.28
2018-08-18T05:20:26.317Z,74.71
2018-08-18T05:21:36.199Z,74.99
2018-08-18T05:22:46.361Z,74.99
2018-08-18T05:23:56.497Z,74.8
2018-08-18T05:25:06.638Z,74.8
2018-08-18T05:26:16.823Z,74.99
2018-08-18T05:27:27.087Z,74.8
2018-08-18T05:28:36.962Z,75.38
2018-08-18T05:29:47.117Z,75.09
2018-08-18T05:30:57.256Z,74.99
2018-08-18T05:32:07.385Z,74.9
2018-08-18T05:33:17.566Z,74.51
2018-08-18T05:34:27.747Z,74.22
2018-08-18T05:35:37.784Z,74.32
2018-08-18T05:36:47.913Z,74.13
2018-08-18T05:37:57.811Z,74.13
2018-08-18T05:39:07.941Z,73.94
2018-08-18T05:40:18.127Z,73.84
2018-08-18T05:41:28.379Z,73.58
2018-08-18T05:42:38.615Z,73.58
2018-08-18T05:43:48.775Z,73.49
2018-08-18T05:44:58.564Z,73.58
2018-08-18T05:46:08.694Z,73.49
2018-08-18T05:47:19.885Z,72.81
2018-08-18T05:48:30.101Z,73.39
2018-08-18T05:49:40.309Z,72.81
2018-08-18T05:50:50.453Z,72.81
2018-08-18T05:52:00.668Z,72.91
2018-08-18T05:53:10.830Z,72.81
2018-08-18T05:54:20.944Z,72.43
2018-08-18T05:55:31.084Z,72.53
2018-08-18T05:56:41.333Z,72.43
2018-08-18T05:57:52.522Z,72.33
2018-08-18T05:59:02.657Z,72.53
2018-08-18T06:00:12.822Z,72.63
2018-08-18T06:01:23.101Z,72.14
2018-08-18T06:02:33.282Z,71.7
2018-08-18T06:03:43.096Z,71.85
2018-08-18T06:04:52.893Z,71.31
2018-08-18T06:06:03.118Z,71.7
2018-08-18T06:07:14.465Z,71.22
2018-08-18T06:08:24.618Z,71.12
2018-08-18T06:09:34.772Z,71.22
2018-08-18T06:10:45.050Z,71.02
2018-08-18T06:11:55.341Z,70.44
2018-08-18T06:13:05.283Z,70.54
2018-08-18T06:14:15.197Z,70.25
2018-08-18T06:15:25.347Z,70.06
2018-08-18T06:16:35.489Z,70.06
2018-08-18T06:17:45.672Z,70.06
2018-08-18T06:18:55.831Z,70.19
2018-08-18T06:20:06.095Z,69.8
2018-08-18T06:21:16.239Z,69.42
2018-08-18T06:22:26.398Z,69.9
2018-08-18T06:23:36.553Z,69.61
2018-08-18T06:24:46.695Z,69.03
2018-08-18T06:25:57.037Z,69.51
2018-08-18T06:27:07.173Z,69.13
2018-08-18T06:28:17.304Z,69.19
2018-08-18T06:29:27.447Z,69.19
2018-08-18T06:30:37.375Z,69.19
2018-08-18T06:31:47.518Z,69.19
2018-08-18T06:32:57.649Z,69.29
2018-08-18T06:34:07.793Z,69.19
2018-08-18T06:35:18.057Z,69.29
2018-08-18T06:36:28.200Z,69.19
2018-08-18T06:37:38.355Z,69.09
2018-08-18T06:38:48.306Z,68.8
2018-08-18T06:39:58.540Z,68.71
2018-08-18T06:41:08.933Z,68.52
2018-08-18T06:42:19.620Z,68.42
2018-08-18T06:43:29.756Z,68.9
2018-08-18T06:44:40.163Z,68.9
2018-08-18T06:45:50.285Z,68.74
2018-08-18T06:47:00.293Z,68.61
2018-08-18T06:48:10.440Z,68.26
2018-08-18T06:49:20.327Z,68.35
2018-08-18T06:50:31.457Z,68.35
2018-08-18T06:51:41.635Z,67.88
2018-08-18T06:52:51.824Z,67.58
2018-08-18T06:54:02.055Z,67.3
2018-08-18T06:55:12.691Z,67.3
2018-08-18T06:56:23.724Z,67.4
2018-08-18T06:57:33.853Z,67.3
2018-08-18T06:58:44.069Z,67
2018-08-18T06:59:54.243Z,66.36
2018-08-18T07:01:04.409Z,66.66
2018-08-18T07:02:14.651Z,67.14
2018-08-18T07:03:24.579Z,66.85
2018-08-18T07:04:34.721Z,66.94
2018-08-18T07:05:44.985Z,66.75
2018-08-18T07:06:54.925Z,66.56
2018-08-18T07:08:06.265Z,66.36
2018-08-18T07:09:16.442Z,66.17
2018-08-18T07:10:26.633Z,66.75
2018-08-18T07:11:36.774Z,66.75
2018-08-18T07:12:46.729Z,66.08
2018-08-18T07:13:56.538Z,66.36
2018-08-18T07:15:06.699Z,66.46
2018-08-18T07:16:16.870Z,65.88
2018-08-18T07:17:27.039Z,66.56
2018-08-18T07:18:37.199Z,65.88
2018-08-18T07:19:47.100Z,66.17
2018-08-18T07:20:57.263Z,65.78
2018-08-18T07:22:07.170Z,65.69
2018-08-18T07:23:17.329Z,66.36
2018-08-18T07:24:27.492Z,66.36
2018-08-18T07:25:37.632Z,66.56
2018-08-18T07:26:47.791Z,66.17
2018-08-18T07:27:57.709Z,66.27
2018-08-18T07:29:08.581Z,66.46
2018-08-18T07:30:19.239Z,66.08
2018-08-18T07:31:29.413Z,65.88
2018-08-18T07:32:39.584Z,66.36
2018-08-18T07:33:49.366Z,65.98
2018-08-18T07:34:59.487Z,65.88
2018-08-18T07:36:09.655Z,65.78
2018-08-18T07:37:20.011Z,65.78
2018-08-18T07:38:30.678Z,65.69
2018-08-18T07:39:40.909Z,65.2
2018-08-18T07:40:51.093Z,65.59
2018-08-18T07:42:01.301Z,65.43
2018-08-18T07:43:11.477Z,65.34
2018-08-18T07:44:21.737Z,65.24
2018-08-18T07:45:31.505Z,64.95
2018-08-18T07:46:41.692Z,65.14
2018-08-18T07:47:51.949Z,64.66
2018-08-18T07:49:02.322Z,64.56
2018-08-18T07:50:12.516Z,64.28
2018-08-18T07:51:22.662Z,64.56
2018-08-18T07:52:32.862Z,65.08
2018-08-18T07:53:43.059Z,64.69
2018-08-18T07:54:53.180Z,64.79
2018-08-18T07:56:03.335Z,64.5
2018-08-18T07:57:13.577Z,64.31
2018-08-18T07:58:23.897Z,64.31
2018-08-18T07:59:34.128Z,64.43
2018-08-18T08:00:44.451Z,64.24
2018-08-18T08:01:54.609Z,64.34
2018-08-18T08:03:04.821Z,63.85
2018-08-18T08:04:14.964Z,63.18
2018-08-18T08:05:24.863Z,63.56
2018-08-18T08:06:35.094Z,62.89
2018-08-18T08:07:45.275Z,63.02
2018-08-18T08:08:55.378Z,62.92
2018-08-18T08:10:05.554Z,62.53
2018-08-18T08:11:15.707Z,62.15
2018-08-18T08:12:26.107Z,62.18
2018-08-18T08:13:36.669Z,61.79
2018-08-18T08:14:46.202Z,61.98
2018-08-18T08:15:56.355Z,61.79
2018-08-18T08:17:06.331Z,61.6
2018-08-18T08:18:16.772Z,61.6
2018-08-18T08:19:27.343Z,61.21
2018-08-18T08:20:37.514Z,61.02
2018-08-18T08:21:47.771Z,61.3
2018-08-18T08:22:58.014Z,61.21
2018-08-18T08:24:08.160Z,60.66
2018-08-18T08:25:18.060Z,60.92
2018-08-18T08:26:27.939Z,61.05
2018-08-18T08:27:38.095Z,60.75
2018-08-18T08:28:48.966Z,60.37
2018-08-18T08:29:58.836Z,60.66
2018-08-18T08:31:08.964Z,60.66
2018-08-18T08:32:19.178Z,60.08
2018-08-18T08:33:29.454Z,60.11
2018-08-18T08:34:39.340Z,59.72
2018-08-18T08:35:49.509Z,59.63
2018-08-18T08:36:59.705Z,59.94
2018-08-18T08:38:09.863Z,59.63
2018-08-18T08:39:20.042Z,59.75
2018-08-18T08:40:30.352Z,59.46
2018-08-18T08:41:40.596Z,59.17
2018-08-18T08:42:50.879Z,58.69
2018-08-18T08:44:01.195Z,58.3
2018-08-18T08:45:11.554Z,58.2
2018-08-18T08:46:21.770Z,57.71
2018-08-18T08:47:31.985Z,57.43
2018-08-18T08:48:42.139Z,56.68
2018-08-18T08:49:52.306Z,56.32
2018-08-18T08:51:02.444Z,56.23
2018-08-18T08:52:12.685Z,55.93
2018-08-18T08:53:22.848Z,55.71
2018-08-18T08:54:33.063Z,55.32
2018-08-18T08:55:43.277Z,55.62
2018-08-18T08:56:53.505Z,55
2018-08-18T08:58:04.672Z,55.1
2018-08-18T08:59:14.605Z,54.81
2018-08-18T09:00:24.804Z,55.49
2018-08-18T09:01:34.941Z,55.58
2018-08-18T09:02:45.079Z,55.76
2018-08-18T09:03:55.220Z,55.56
2018-08-18T09:05:05.425Z,55.07
2018-08-18T09:06:15.632Z,54.79
2018-08-18T09:07:25.323Z,54.62
2018-08-18T09:08:35.500Z,54.43
2018-08-18T09:09:45.660Z,54.03
2018-08-18T09:10:55.803Z,53.94
2018-08-18T09:12:05.986Z,54.21
2018-08-18T09:13:16.184Z,54.49
2018-08-18T09:14:26.427Z,54.49
2018-08-18T09:15:36.616Z,54.01
2018-08-18T09:16:46.863Z,54.39
2018-08-18T09:17:57.004Z,54.3
2018-08-18T09:19:07.155Z,53.91
2018-08-18T09:20:17.333Z,54.01
2018-08-18T09:21:27.625Z,54.11
2018-08-18T09:22:37.794Z,53.75
2018-08-18T09:23:48.119Z,53.65
2018-08-18T09:24:58.296Z,53.26
2018-08-18T09:26:08.523Z,53.26
2018-08-18T09:27:18.903Z,53.45
2018-08-18T09:28:29.034Z,54.13
2018-08-18T09:29:38.844Z,53.65
2018-08-18T09:30:49.195Z,53.77
2018-08-18T09:31:59.384Z,53.77
2018-08-18T09:33:09.580Z,54.03
2018-08-18T09:34:19.723Z,53.65
2018-08-18T09:35:29.915Z,53.29
2018-08-18T09:36:40.064Z,52.9
2018-08-18T09:37:50.231Z,53.19
2018-08-18T09:39:00.405Z,52.9
2018-08-18T09:40:10.588Z,52.32
2018-08-18T09:41:20.735Z,52.25
2018-08-18T09:42:31.073Z,52.15
2018-08-18T09:43:41.224Z,51.76
2018-08-18T09:44:51.396Z,51.37
2018-08-18T09:46:01.568Z,50.89
2018-08-18T09:47:12.025Z,51.21
2018-08-18T09:48:22.211Z,50.53
2018-08-18T09:49:33.454Z,50.04
2018-08-18T09:50:43.819Z,49.75
2018-08-18T09:51:54.069Z,49.87
2018-08-18T09:53:04.311Z,49.68
2018-08-18T09:54:14.790Z,49.54
2018-08-18T09:55:25.448Z,48.03
2018-08-18T09:56:35.651Z,46.91
2018-08-18T09:57:45.529Z,45.68
2018-08-18T09:58:55.801Z,43.88
2018-08-18T10:00:06.115Z,42.75
2018-08-18T10:01:16.054Z,43.08
2018-08-18T10:02:27.248Z,42.81
2018-08-18T10:03:39.633Z,41.27
2018-08-18T10:04:51.706Z,40.14
2018-08-18T10:06:01.871Z,39.76
2018-08-18T10:07:12.165Z,39.27
2018-08-18T10:08:22.547Z,38.68
2018-08-18T10:09:32.187Z,38.68
2018-08-18T10:10:42.364Z,38.88
2018-08-18T10:11:52.619Z,39.07
2018-08-18T10:13:02.910Z,38.78
2018-08-18T10:14:13.094Z,38.78
2018-08-18T10:15:23.454Z,37.98
2018-08-18T10:16:35.079Z,38.94
2018-08-18T10:17:45.303Z,39.02
2018-08-18T10:18:56.693Z,38.61
2018-08-18T10:20:08.135Z,38.32
2018-08-18T10:21:18.339Z,38.51
2018-08-18T10:22:29.585Z,38.42
2018-08-18T10:23:39.841Z,38.02
2018-08-18T10:24:50.048Z,38.9
2018-08-18T10:27:12.327Z,37.63
2018-08-18T10:28:22.199Z,37.63
2018-08-18T10:29:32.378Z,37.43
2018-08-18T10:30:42.571Z,37.37
2018-08-18T10:31:52.773Z,36.98
2018-08-18T10:33:02.977Z,36
2018-08-18T10:34:13.945Z,35.34
2018-08-18T10:35:25.931Z,35.04
2018-08-18T10:36:37.006Z,34.65
2018-08-18T10:37:48.323Z,34.57
2018-08-18T10:38:58.249Z,33.89
2018-08-18T10:40:08.535Z,34.39
2018-08-18T10:41:18.837Z,34.78
2018-08-18T10:42:29.136Z,34.11
2018-08-18T10:44:56.168Z,33.74
2018-08-18T10:46:10.083Z,33.25
2018-08-18T10:47:21.247Z,33.25
2018-08-18T10:48:33.343Z,32.87
2018-08-18T10:49:46.990Z,32.18
2018-08-18T10:50:56.895Z,32.87
2018-08-18T10:52:07.402Z,32.09
2018-08-18T10:53:17.724Z,31.79
2018-08-18T10:54:27.960Z,31.3
2018-08-18T10:55:38.200Z,31.89
2018-08-18T10:56:48.399Z,31.99
2018-08-18T10:57:58.564Z,31.7
2018-08-18T10:59:09.370Z,30.73
2018-08-18T11:00:19.542Z,30.43
2018-08-18T11:01:29.945Z,30.82
2018-08-18T11:02:40.125Z,30.63
2018-08-18T11:03:50.095Z,30.63
2018-08-18T11:05:00.483Z,30.53
2018-08-18T11:06:10.664Z,30.33
2018-08-18T11:07:20.581Z,30.42
2018-08-18T11:08:30.779Z,30.02
2018-08-18T11:09:41.165Z,29.83
2018-08-18T11:10:51.348Z,30.12
2018-08-18T11:12:01.524Z,29.93
2018-08-18T11:13:11.697Z,29.85
2018-08-18T11:14:22.113Z,29.85
2018-08-18T11:15:32.298Z,28.37
2018-08-18T11:16:42.591Z,29.05
2018-08-18T11:17:52.561Z,28.95
2018-08-18T11:19:02.725Z,29.35
2018-08-18T11:20:12.627Z,28.86
2018-08-18T11:21:23.000Z,28.47
2018-08-18T11:22:33.537Z,28.77
2018-08-18T11:23:44.104Z,28.86
2018-08-18T11:24:54.891Z,28.27
2018-08-18T11:28:35.870Z,29.06
2018-08-18T11:29:47.643Z,29.06
2018-08-18T11:31:01.601Z,28.57
2018-08-18T11:33:24.213Z,28.96
2018-08-18T11:35:48.233Z,28.75
2018-08-18T11:36:58.509Z,29.03
2018-08-18T11:38:08.698Z,29.52
2018-08-18T11:39:21.305Z,29.8
2018-08-18T11:40:31.551Z,30.18
2018-08-18T11:41:41.708Z,30.07
2018-08-18T11:42:51.928Z,30.16
2018-08-18T11:44:03.839Z,30.26
2018-08-18T11:45:13.986Z,30.55
2018-08-18T11:46:24.915Z,30.83
2018-08-18T11:47:35.251Z,31.14
2018-08-18T11:48:45.430Z,30.67
2018-08-18T11:49:55.734Z,30.77
2018-08-18T11:51:05.327Z,30.47
2018-08-18T11:52:15.520Z,30
2018-08-18T11:53:25.429Z,29.91
2018-08-18T11:54:35.633Z,29.91
2018-08-18T11:55:45.803Z,29.82
2018-08-18T11:56:56.036Z,29.31
2018-08-18T11:58:05.943Z,29.5
2018-08-18T11:59:16.143Z,29.43
2018-08-18T12:00:25.943Z,29.52
2018-08-18T12:01:36.155Z,29.03
2018-08-18T12:02:46.312Z,28.64
2018-08-18T12:03:56.479Z,28.83
2018-08-18T12:05:06.695Z,29.14
2018-08-18T12:06:16.891Z,28.65
2018-08-18T12:07:27.090Z,28.95
2018-08-18T12:08:37.305Z,28.36
2018-08-18T12:09:47.209Z,29.14
2018-08-18T12:10:57.769Z,28.26
2018-08-18T12:12:08.685Z,28.65
2018-08-18T12:13:18.906Z,28.95
2018-08-18T12:14:28.871Z,28.27
2018-08-18T12:15:39.033Z,26.8
2018-08-18T12:16:49.229Z,28.09
2018-08-18T12:17:59.455Z,27.98
2018-08-18T12:19:09.609Z,27.99
2018-08-18T12:20:19.765Z,27.99
2018-08-18T12:21:30.393Z,26.81
2018-08-18T12:22:40.808Z,27.8
2018-08-18T12:23:51.180Z,27.11
2018-08-18T12:25:01.378Z,27.98
2018-08-18T12:26:11.625Z,28.37
2018-08-18T12:27:21.899Z,28.27
2018-08-18T12:28:31.799Z,28.57
2018-08-18T12:29:42.207Z,28.55
2018-08-18T12:30:53.094Z,28.65
2018-08-18T12:32:03.256Z,29.03
2018-08-18T12:33:13.439Z,29.31
2018-08-18T12:34:23.614Z,29.11
2018-08-18T12:35:33.852Z,29.59
2018-08-18T12:36:44.160Z,29.79
2018-08-18T12:37:54.877Z,29.97
2018-08-18T12:39:04.805Z,30.55
2018-08-18T12:40:15.040Z,30.54
2018-08-18T12:41:25.287Z,30.83
2018-08-18T12:42:35.688Z,30.83
2018-08-18T12:43:45.616Z,30.83
2018-08-18T12:44:55.147Z,30.82
2018-08-18T12:46:05.310Z,30.82
2018-08-18T12:47:15.530Z,30.91
2018-08-18T12:48:25.805Z,31.03
2018-08-18T12:49:35.861Z,31.01
2018-08-18T12:50:46.365Z,30.91
2018-08-18T12:51:56.586Z,30.91
2018-08-18T12:53:06.771Z,31.28
2018-08-18T12:54:16.940Z,31.67
2018-08-18T12:55:27.130Z,31.85
2018-08-18T12:56:37.296Z,32.24
2018-08-18T12:57:47.734Z,32.63
2018-08-18T12:58:57.894Z,32.62
2018-08-18T13:00:08.180Z,32.71
2018-08-18T13:01:19.589Z,32.71
2018-08-18T13:02:31.159Z,32.99
2018-08-18T13:03:44.043Z,33.28
2018-08-18T13:04:55.921Z,32.79
2018-08-18T13:06:07.095Z,32.89
2018-08-18T13:07:17.267Z,33.09
2018-08-18T13:08:27.435Z,33.09
2018-08-18T13:09:37.608Z,32.5
2018-08-18T13:10:47.941Z,32.7
2018-08-18T13:11:58.120Z,33.28
2018-08-18T13:13:08.307Z,32.31
2018-08-18T13:14:18.617Z,32.6
2018-08-18T13:15:29.168Z,33.28
2018-08-18T13:16:39.356Z,33.11
2018-08-18T13:17:49.667Z,32.6
2018-08-18T13:18:59.848Z,33.28
2018-08-18T13:20:10.007Z,33.4
2018-08-18T13:21:20.202Z,32.31
2018-08-18T13:22:30.400Z,33.18
2018-08-18T13:23:39.965Z,32.7
2018-08-18T13:24:50.164Z,32.7
2018-08-18T13:26:00.328Z,33.28
2018-08-18T13:27:10.511Z,33.18
2018-08-18T13:28:20.671Z,33.28
2018-08-18T13:29:30.867Z,32.99
2018-08-18T13:30:41.060Z,32.87
2018-08-18T13:31:51.254Z,33.26
2018-08-18T13:33:00.925Z,33.07
2018-08-18T13:34:11.293Z,33.36
2018-08-18T13:35:21.480Z,33.36
2018-08-18T13:36:31.719Z,33.44
2018-08-18T13:37:42.004Z,33.64
2018-08-18T13:38:52.185Z,33.54
2018-08-18T13:40:02.364Z,33.54
2018-08-18T13:41:12.604Z,33.54
2018-08-18T13:42:22.781Z,33.72
2018-08-18T13:43:32.696Z,33.82
2018-08-18T13:44:42.945Z,34.59
2018-08-18T13:45:53.104Z,34.59
2018-08-18T13:47:03.009Z,34.59
2018-08-18T13:48:13.414Z,34.52
2018-08-18T13:49:23.304Z,34.03
2018-08-18T13:50:33.494Z,33.54
2018-08-18T13:51:43.680Z,33.72
2018-08-18T13:52:53.938Z,33.72
2018-08-18T13:54:04.807Z,34
2018-08-18T13:55:15.630Z,34.09
2018-08-18T13:56:25.796Z,34.09
2018-08-18T13:57:35.966Z,34.48
2018-08-18T13:58:46.195Z,34.58
2018-08-18T13:59:56.456Z,34.58
2018-08-18T14:01:06.746Z,34.09
2018-08-18T14:02:17.214Z,34.09
2018-08-18T14:03:27.415Z,34.29
2018-08-18T14:04:37.623Z,34.19
2018-08-18T14:05:47.884Z,34.09
2018-08-18T14:06:58.487Z,34.39
2018-08-18T14:08:08.991Z,34.66
2018-08-18T14:09:19.293Z,34.48
2018-08-18T14:10:29.544Z,34.19
2018-08-18T14:11:39.487Z,34.19
2018-08-18T14:12:49.664Z,34.19
2018-08-18T14:13:59.833Z,34.19
2018-08-18T14:15:10.092Z,34.48
2018-08-18T14:16:20.296Z,34.58
2018-08-18T14:17:30.702Z,34.58
2018-08-18T14:18:42.141Z,34.39
2018-08-18T14:19:51.935Z,34.48
2018-08-18T14:21:02.231Z,34.48
2018-08-18T14:22:12.407Z,34.48
2018-08-18T14:23:22.590Z,34.59
2018-08-18T14:24:32.769Z,34.4
2018-08-18T14:25:42.982Z,34.39
2018-08-18T14:26:52.917Z,33.92
2018-08-18T14:28:03.074Z,33.31
2018-08-18T14:29:13.265Z,33.62
2018-08-18T14:30:24.452Z,33.33
2018-08-18T14:31:34.676Z,33.53
2018-08-18T14:32:44.587Z,33.82
2018-08-18T14:33:54.955Z,33.62
2018-08-18T14:35:05.683Z,33.23
2018-08-18T14:36:16.096Z,33.23
2018-08-18T14:37:26.338Z,33.14
2018-08-18T14:38:36.512Z,33.31
2018-08-18T14:39:46.687Z,33.51
2018-08-18T14:40:56.955Z,33.51
2018-08-18T14:42:07.297Z,33.82
2018-08-18T14:43:17.469Z,33.92
2018-08-18T14:44:27.682Z,34.21
2018-08-18T14:45:38.200Z,33.82
2018-08-18T14:46:48.493Z,34.01
2018-08-18T14:47:59.082Z,33.62
2018-08-18T14:49:09.405Z,33.62
2018-08-18T14:50:19.656Z,33.9
2018-08-18T14:51:29.869Z,33.7
2018-08-18T14:52:39.768Z,34
2018-08-18T14:53:49.938Z,34.09
2018-08-18T14:55:00.174Z,34.68
2018-08-18T14:56:10.409Z,34.58
2018-08-18T14:57:20.592Z,34.48
2018-08-18T14:58:30.838Z,33.9
2018-08-18T14:59:40.945Z,33.8
2018-08-18T15:00:50.854Z,34.01
2018-08-18T15:02:01.318Z,33.53
2018-08-18T15:03:11.523Z,33.72
2018-08-18T15:04:21.814Z,33.92
2018-08-18T15:05:32.586Z,33.72
2018-08-18T15:06:42.769Z,34.01
2018-08-18T15:07:53.021Z,33.92
2018-08-18T15:09:03.253Z,33.82
2018-08-18T15:10:13.452Z,33.72
2018-08-18T15:11:23.815Z,33.72
2018-08-18T15:12:33.988Z,33.62
2018-08-18T15:13:43.919Z,33.33
2018-08-18T15:14:54.330Z,33.33